createdAt,value
2018-08-28T00:02:22.107Z,5.40
2018-08-28T00:04:51.124Z,5.33
2018-08-28T00:07:19.859Z,4.73
2018-08-28T00:09:48.688Z,6.03
2018-08-28T00:12:17.331Z,5.20
2018-08-28T00:14:46.058Z,5.07
2018-08-28T00:17:14.750Z,5.20
2018-08-28T00:19:43.575Z,5.30
2018-08-28T00:22:12.699Z,6.10
2018-08-28T00:24:41.240Z,8.33
2018-08-28T00:27:09.931Z,10.07
2018-08-28T00:29:38.464Z,8.27
2018-08-28T00:32:07.125Z,5.47
2018-08-28T00:34:36.526Z,5.83
2018-08-28T00:37:05.252Z,4.73
2018-08-28T00:39:33.915Z,4.13
2018-08-28T00:42:02.667Z,4.23
2018-08-28T00:44:31.351Z,3.70
2018-08-28T00:46:59.992Z,3.17
2018-08-28T00:49:28.654Z,3.53
2018-08-28T00:51:57.352Z,2.87
2018-08-28T00:54:26.020Z,3.90
2018-08-28T00:56:54.804Z,3.43
2018-08-28T00:59:23.528Z,2.90
2018-08-28T01:01:52.376Z,2.30
2018-08-28T01:04:21.808Z,3.20
2018-08-28T01:06:50.808Z,3.40
2018-08-28T01:09:20.381Z,4.33
2018-08-28T01:11:48.965Z,4.03
2018-08-28T01:14:17.764Z,4.10
2018-08-28T01:16:47.318Z,3.67
2018-08-28T01:19:16.176Z,2.93
2018-08-28T01:21:44.901Z,4.10
2018-08-28T01:24:13.582Z,3.03
2018-08-28T01:26:42.188Z,3.70
2018-08-28T01:29:10.899Z,3.27
2018-08-28T01:31:39.588Z,2.73
2018-08-28T01:34:08.243Z,2.47
2018-08-28T01:36:37.024Z,3.20
2018-08-28T01:39:06.959Z,3.10
2018-08-28T01:41:35.524Z,3.47
2018-08-28T01:44:04.779Z,4.87
2018-08-28T01:46:33.520Z,7.63
2018-08-28T01:49:02.440Z,4.87
2018-08-28T01:51:31.698Z,4.30
2018-08-28T01:54:00.395Z,4.20
2018-08-28T01:56:29.116Z,4.80
2018-08-28T01:58:57.794Z,5.10
2018-08-28T02:01:26.639Z,5.73
2018-08-28T02:03:55.515Z,4.83
2018-08-28T02:06:24.402Z,5.50
2018-08-28T02:08:53.258Z,4.50
2018-08-28T02:11:22.149Z,3.00
2018-08-28T02:13:51.636Z,3.23
2018-08-28T02:16:20.486Z,2.70
2018-08-28T02:18:49.507Z,3.10
2018-08-28T02:21:18.799Z,3.40
2018-08-28T02:23:47.488Z,3.03
2018-08-28T02:26:16.155Z,3.13
2018-08-28T02:28:44.715Z,3.90
2018-08-28T02:31:13.916Z,2.80
2018-08-28T02:33:42.981Z,3.10
2018-08-28T02:36:12.227Z,3.90
2018-08-28T02:38:40.877Z,3.53
2018-08-28T02:41:09.559Z,3.00
2018-08-28T02:43:38.180Z,3.20
2018-08-28T02:46:06.871Z,2.83
2018-08-28T02:48:35.729Z,3.27
2018-08-28T02:51:04.427Z,3.10
2018-08-28T02:53:33.129Z,3.87
2018-08-28T02:56:01.907Z,3.87
2018-08-28T02:58:30.546Z,3.30
2018-08-28T03:00:59.076Z,3.67
2018-08-28T03:03:27.797Z,3.80
2018-08-28T03:05:56.560Z,3.33
2018-08-28T03:08:25.287Z,3.40
2018-08-28T03:10:53.935Z,3.43
2018-08-28T03:13:22.806Z,3.10
2018-08-28T03:15:51.605Z,4.03
2018-08-28T03:18:20.364Z,3.80
2018-08-28T03:20:48.906Z,2.83
2018-08-28T03:23:18.350Z,3.63
2018-08-28T03:25:46.977Z,2.70
2018-08-28T03:28:16.547Z,3.37
2018-08-28T03:30:46.060Z,4.30
2018-08-28T03:33:14.815Z,3.67
2018-08-28T03:35:43.577Z,3.80
2018-08-28T03:38:12.571Z,2.93
2018-08-28T03:40:41.633Z,3.27
2018-08-28T03:43:12.025Z,2.53
2018-08-28T03:45:40.700Z,2.90
2018-08-28T03:48:09.472Z,2.70
2018-08-28T03:50:38.908Z,3.60
2018-08-28T03:53:07.990Z,3.53
2018-08-28T03:55:36.800Z,3.57
2018-08-28T03:58:05.911Z,3.70
2018-08-28T04:00:34.667Z,3.37
2018-08-28T04:03:04.290Z,4.10
2018-08-28T04:05:33.192Z,4.10
2018-08-28T04:08:01.867Z,7.60
2018-08-28T04:10:30.656Z,10.30
2018-08-28T04:12:59.464Z,5.63
2018-08-28T04:15:28.167Z,4.80
2018-08-28T04:17:57.139Z,3.33
2018-08-28T04:20:25.907Z,2.97
2018-08-28T04:22:55.308Z,3.70
2018-08-28T04:25:23.944Z,3.90
2018-08-28T04:27:52.757Z,4.43
2018-08-28T04:30:21.463Z,4.27
2018-08-28T04:32:50.011Z,4.00
2018-08-28T04:35:18.637Z,6.13
2018-08-28T04:37:47.783Z,6.07
2018-08-28T04:40:17.008Z,5.00
2018-08-28T04:42:46.192Z,4.47
2018-08-28T04:45:14.761Z,4.00
2018-08-28T04:47:43.329Z,3.60
2018-08-28T04:50:11.936Z,4.53
2018-08-28T04:52:41.189Z,3.20
2018-08-28T04:55:10.025Z,3.53
2018-08-28T04:57:38.643Z,3.00
2018-08-28T05:00:08.052Z,3.20
2018-08-28T05:02:38.068Z,3.63
2018-08-28T05:05:08.986Z,5.37
2018-08-28T05:07:37.540Z,4.83
2018-08-28T05:10:07.028Z,6.07
2018-08-28T05:12:35.689Z,4.70
2018-08-28T05:15:05.560Z,4.30
2018-08-28T05:17:34.109Z,4.10
2018-08-28T05:20:02.966Z,4.83
2018-08-28T05:22:31.675Z,3.83
2018-08-28T05:25:00.567Z,3.07
2018-08-28T05:27:30.289Z,3.93
2018-08-28T05:29:59.500Z,3.70
2018-08-28T05:32:28.430Z,3.47
2018-08-28T05:34:57.468Z,3.20
2018-08-28T05:37:26.178Z,3.70
2018-08-28T05:39:55.262Z,4.17
2018-08-28T05:42:24.822Z,3.63
2018-08-28T05:44:54.220Z,2.87
2018-08-28T05:47:22.939Z,3.43
2018-08-28T05:49:51.847Z,3.90
2018-08-28T05:52:20.816Z,3.77
2018-08-28T05:54:49.686Z,3.40
2018-08-28T05:57:18.525Z,3.77
2018-08-28T05:59:47.819Z,3.67
2018-08-28T06:02:17.584Z,3.53
2018-08-28T06:04:46.353Z,3.70
2018-08-28T06:07:14.943Z,3.27
2018-08-28T06:09:43.743Z,3.60
2018-08-28T06:12:12.562Z,3.10
2018-08-28T06:14:41.695Z,3.40
2018-08-28T06:17:10.394Z,2.90
2018-08-28T06:19:39.132Z,4.67
2018-08-28T06:22:08.432Z,5.20
2018-08-28T06:24:37.865Z,5.10
2018-08-28T06:27:06.648Z,4.20
2018-08-28T06:29:35.804Z,4.00
2018-08-28T06:32:04.522Z,3.43
2018-08-28T06:34:33.256Z,3.53
2018-08-28T06:37:02.233Z,4.67
2018-08-28T06:39:30.886Z,4.20
2018-08-28T06:41:59.528Z,3.93
2018-08-28T06:44:28.377Z,4.13
2018-08-28T06:46:56.915Z,3.73
2018-08-28T06:49:25.810Z,3.40
2018-08-28T06:51:54.491Z,3.10
2018-08-28T06:54:23.200Z,3.07
2018-08-28T06:56:51.960Z,3.40
2018-08-28T06:59:20.732Z,3.00
2018-08-28T07:01:50.035Z,3.07
2018-08-28T07:04:18.892Z,3.33
2018-08-28T07:06:47.599Z,3.33
2018-08-28T07:09:16.273Z,3.57
2018-08-28T07:11:44.963Z,4.03
2018-08-28T07:14:13.644Z,3.47
2018-08-28T07:16:42.480Z,3.17
2018-08-28T07:22:13.552Z,3.50
2018-08-28T07:24:42.395Z,5.00
2018-08-28T07:27:11.074Z,3.60
2018-08-28T07:29:39.667Z,3.77
2018-08-28T07:32:08.220Z,4.03
2018-08-28T07:34:36.945Z,3.33
2018-08-28T07:37:05.772Z,3.70
2018-08-28T07:39:35.139Z,3.53
2018-08-28T07:42:03.702Z,3.13
2018-08-28T07:44:32.244Z,3.73
2018-08-28T07:47:01.684Z,3.70
2018-08-28T07:49:30.265Z,3.87
2018-08-28T07:51:58.827Z,4.07
2018-08-28T07:54:27.364Z,3.67
2018-08-28T07:56:56.115Z,4.20
2018-08-28T07:59:24.808Z,3.43
2018-08-28T08:01:53.495Z,3.73
2018-08-28T08:04:22.193Z,4.57
2018-08-28T08:06:50.844Z,3.57
2018-08-28T08:09:19.539Z,3.83
2018-08-28T08:11:48.844Z,3.43
2018-08-28T08:14:17.560Z,4.30
2018-08-28T08:16:46.227Z,3.33
2018-08-28T08:19:14.804Z,3.90
2018-08-28T08:21:44.183Z,3.73
2018-08-28T08:24:13.489Z,4.17
2018-08-28T08:26:42.254Z,4.60
2018-08-28T08:29:10.977Z,3.67
2018-08-28T08:31:40.259Z,3.27
2018-08-28T08:34:09.728Z,3.60
2018-08-28T08:36:39.175Z,4.23
2018-08-28T08:39:09.895Z,4.30
2018-08-28T08:41:39.041Z,4.43
2018-08-28T08:44:08.320Z,3.50
2018-08-28T08:46:36.976Z,3.23
2018-08-28T08:49:05.727Z,3.40
2018-08-28T08:51:34.391Z,3.90
2018-08-28T08:54:03.015Z,3.70
2018-08-28T08:56:31.556Z,3.40
2018-08-28T08:59:00.837Z,3.90
2018-08-28T09:01:29.483Z,3.90
2018-08-28T09:03:58.020Z,3.70
2018-08-28T09:06:26.663Z,3.57
2018-08-28T09:08:55.387Z,3.20
2018-08-28T09:11:24.639Z,4.47
2018-08-28T09:13:53.277Z,3.70
2018-08-28T09:16:22.791Z,3.70
2018-08-28T09:18:51.519Z,3.73
2018-08-28T09:21:21.579Z,3.10
2018-08-28T09:23:50.484Z,4.53
2018-08-28T09:26:19.018Z,3.20
2018-08-28T09:28:47.877Z,4.27
2018-08-28T09:31:16.904Z,4.37
2018-08-28T09:33:46.483Z,3.17
2018-08-28T09:36:15.124Z,3.87
2018-08-28T09:38:43.867Z,3.60
2018-08-28T09:41:12.723Z,4.00
2018-08-28T09:43:41.470Z,3.80
2018-08-28T09:46:10.316Z,4.30
2018-08-28T09:48:39.194Z,3.50
2018-08-28T09:51:07.924Z,4.07
2018-08-28T09:53:36.618Z,4.60
2018-08-28T09:56:05.460Z,4.17
2018-08-28T09:58:34.407Z,4.33
2018-08-28T10:01:08.097Z,5.10
2018-08-28T10:03:37.492Z,4.50
2018-08-28T10:06:06.632Z,4.27
2018-08-28T10:08:36.277Z,4.27
2018-08-28T10:11:05.131Z,4.40
2018-08-28T10:13:34.322Z,5.00
2018-08-28T10:16:03.297Z,3.70
2018-08-28T10:18:32.071Z,3.93
2018-08-28T10:21:00.974Z,4.80
2018-08-28T10:23:29.608Z,4.47
2018-08-28T10:25:58.497Z,4.67
2018-08-28T10:28:27.401Z,5.13
2018-08-28T10:30:56.120Z,5.57
2018-08-28T10:33:24.936Z,5.53
2018-08-28T10:35:53.619Z,8.40
2018-08-28T10:38:22.833Z,6.27
2018-08-28T10:40:51.815Z,5.50
2018-08-28T10:43:20.470Z,5.80
2018-08-28T10:45:49.920Z,7.30
2018-08-28T10:48:18.556Z,5.47
2018-08-28T10:50:47.401Z,6.43
2018-08-28T10:53:16.083Z,5.77
2018-08-28T10:55:45.650Z,5.23
2018-08-28T10:58:14.768Z,4.73
2018-08-28T11:00:43.691Z,4.20
2018-08-28T11:03:13.160Z,4.40
2018-08-28T11:05:43.217Z,5.00
2018-08-28T11:08:11.753Z,7.03
2018-08-28T11:10:40.375Z,6.80
2018-08-28T11:13:09.097Z,6.40
2018-08-28T11:15:37.715Z,5.83
2018-08-28T11:18:06.490Z,4.80
2018-08-28T11:20:35.016Z,5.07
2018-08-28T11:23:03.701Z,5.63
2018-08-28T11:25:32.159Z,5.60
2018-08-28T11:28:00.705Z,5.07
2018-08-28T11:30:29.479Z,4.80
2018-08-28T11:32:58.092Z,5.43
2018-08-28T11:35:26.632Z,5.53
2018-08-28T11:37:55.468Z,5.83
2018-08-28T11:40:24.748Z,5.53
2018-08-28T11:42:53.895Z,6.17
2018-08-28T11:45:22.535Z,5.70
2018-08-28T11:47:51.468Z,5.87
2018-08-28T11:50:19.883Z,5.73
2018-08-28T11:52:48.636Z,5.77
2018-08-28T11:55:17.221Z,5.90
2018-08-28T11:57:45.788Z,6.17
2018-08-28T12:00:16.284Z,6.63
2018-08-28T12:02:44.903Z,6.47
2018-08-28T12:05:13.476Z,5.53
2018-08-28T12:07:42.423Z,5.60
2018-08-28T12:10:13.469Z,6.60
2018-08-28T12:12:42.820Z,5.20
2018-08-28T12:15:11.600Z,6.00
2018-08-28T12:17:40.561Z,6.60
2018-08-28T12:20:10.268Z,6.40
2018-08-28T12:22:38.968Z,5.23
2018-08-28T12:25:08.455Z,6.23
2018-08-28T12:27:37.516Z,6.37
2018-08-28T12:30:07.664Z,7.23
2018-08-28T12:32:36.208Z,5.60
2018-08-28T12:35:05.550Z,7.40
2018-08-28T12:37:34.088Z,6.30
2018-08-28T12:40:03.356Z,6.57
2018-08-28T12:42:32.986Z,6.70
2018-08-28T12:45:02.260Z,6.57
2018-08-28T12:47:31.969Z,6.97
2018-08-28T12:50:00.675Z,6.67
2018-08-28T12:52:30.156Z,5.60
2018-08-28T12:54:59.701Z,5.90
2018-08-28T12:57:28.295Z,6.07
2018-08-28T12:59:56.924Z,7.43
2018-08-28T13:02:25.790Z,6.97
2018-08-28T13:04:54.325Z,7.50
2018-08-28T13:07:22.952Z,5.80
2018-08-28T13:09:51.912Z,6.37
2018-08-28T13:12:20.525Z,6.70
2018-08-28T13:14:49.176Z,7.50
2018-08-28T13:17:17.699Z,9.70
2018-08-28T13:19:46.248Z,13.17
2018-08-28T13:22:15.150Z,8.57
2018-08-28T13:24:43.841Z,8.07
2018-08-28T13:27:12.851Z,6.90
2018-08-28T13:29:41.420Z,7.10
2018-08-28T13:32:10.157Z,7.40
2018-08-28T13:34:38.912Z,8.80
2018-08-28T13:37:07.566Z,6.97
2018-08-28T13:39:36.549Z,7.07
2018-08-28T13:42:05.188Z,6.93
2018-08-28T13:44:33.737Z,7.20
2018-08-28T13:47:02.419Z,8.23
2018-08-28T13:49:31.461Z,7.37
2018-08-28T13:52:00.363Z,7.50
2018-08-28T13:54:29.096Z,7.47
2018-08-28T13:56:57.501Z,6.07
2018-08-28T13:59:26.448Z,6.93
2018-08-28T14:01:55.023Z,7.53
2018-08-28T14:04:23.587Z,8.13
2018-08-28T14:06:52.211Z,6.97
2018-08-28T14:09:20.752Z,7.67
2018-08-28T14:11:49.317Z,7.67
2018-08-28T14:14:17.903Z,6.90
2018-08-28T14:16:46.540Z,8.50
2018-08-28T14:19:15.054Z,7.80
2018-08-28T14:21:44.016Z,8.10
2018-08-28T14:24:12.582Z,6.93
2018-08-28T14:26:41.285Z,7.43
2018-08-28T14:29:10.300Z,6.30
2018-08-28T14:31:38.984Z,6.97
2018-08-28T14:34:07.564Z,8.27
2018-08-28T14:36:36.132Z,7.70
2018-08-28T14:39:05.891Z,7.40
2018-08-28T14:41:34.923Z,6.60
2018-08-28T14:44:04.388Z,6.60
2018-08-28T14:46:32.979Z,8.13
2018-08-28T14:49:01.561Z,6.50
2018-08-28T14:51:30.195Z,7.60
2018-08-28T14:53:58.792Z,7.07
2018-08-28T14:56:27.422Z,7.10
2018-08-28T14:58:56.241Z,7.93
2018-08-28T15:01:24.781Z,6.47
2018-08-28T15:03:53.470Z,9.67
2018-08-28T15:06:22.092Z,6.70
2018-08-28T15:08:50.636Z,8.30
2018-08-28T15:11:20.332Z,6.70
2018-08-28T15:13:49.369Z,7.47
2018-08-28T15:16:18.426Z,5.60
2018-08-28T15:18:47.281Z,7.23
2018-08-28T15:21:16.772Z,6.53
2018-08-28T15:23:45.819Z,6.77
2018-08-28T15:26:14.515Z,7.13
2018-08-28T15:28:43.167Z,7.80
2018-08-28T15:31:20.715Z,10.93
2018-08-28T15:33:50.320Z,6.97
2018-08-28T15:36:20.415Z,7.07
2018-08-28T15:38:49.200Z,7.20
2018-08-28T15:41:18.077Z,6.73
2018-08-28T15:43:47.816Z,8.80
2018-08-28T15:46:16.555Z,7.07
2018-08-28T15:48:45.296Z,7.87
2018-08-28T15:51:14.511Z,7.57
2018-08-28T15:53:44.195Z,6.70
2018-08-28T15:56:13.166Z,6.60
2018-08-28T15:58:42.451Z,7.93
2018-08-28T16:01:12.321Z,7.23
2018-08-28T16:03:42.125Z,7.87
2018-08-28T16:06:11.156Z,8.03
2018-08-28T16:08:40.173Z,11.53
2018-08-28T16:11:08.901Z,9.70
2018-08-28T16:13:37.546Z,8.93
2018-08-28T16:16:06.255Z,7.70
2018-08-28T16:21:41.700Z,7.47
2018-08-28T16:24:10.311Z,6.73
2018-08-28T16:26:38.921Z,7.97
2018-08-28T16:29:07.875Z,8.20
2018-08-28T16:31:36.675Z,7.30
2018-08-28T16:34:06.360Z,9.13
2018-08-28T16:36:34.878Z,8.57
2018-08-28T16:39:03.753Z,7.70
2018-08-28T16:41:32.336Z,8.17
2018-08-28T16:44:00.862Z,8.10
2018-08-28T16:46:29.460Z,7.87
2018-08-28T16:48:58.553Z,11.17
2018-08-28T16:51:27.415Z,7.70
2018-08-28T16:53:56.210Z,7.10
2018-08-28T16:56:25.115Z,7.97
2018-08-28T16:58:53.839Z,7.70
2018-08-28T17:01:22.737Z,7.13
2018-08-28T17:03:52.071Z,8.53
2018-08-28T17:06:20.716Z,11.80
2018-08-28T17:08:49.510Z,10.27
2018-08-28T17:11:18.268Z,10.60
2018-08-28T17:13:46.820Z,8.20
2018-08-28T17:16:15.646Z,10.90
2018-08-28T17:18:44.510Z,9.37
2018-08-28T17:21:13.335Z,10.30
2018-08-28T17:23:41.952Z,9.57
2018-08-28T17:26:10.569Z,9.40
2018-08-28T17:28:40.472Z,9.90
2018-08-28T17:31:10.241Z,7.70
2018-08-28T17:33:39.075Z,7.07
2018-08-28T17:36:07.776Z,7.13
2018-08-28T17:38:36.544Z,7.20
2018-08-28T17:41:06.572Z,8.87
2018-08-28T17:43:35.275Z,9.30
2018-08-28T17:46:04.179Z,12.70
2018-08-28T17:48:32.932Z,12.20
2018-08-28T17:51:02.121Z,10.30
2018-08-28T17:53:31.024Z,20.97
2018-08-28T17:55:59.576Z,12.27
2018-08-28T17:58:29.040Z,10.10
2018-08-28T18:00:57.705Z,9.07
2018-08-28T18:03:26.991Z,7.83
2018-08-28T18:05:55.657Z,7.30
2018-08-28T18:08:24.520Z,7.00
2018-08-28T18:10:54.616Z,7.70
2018-08-28T18:13:24.020Z,7.27
2018-08-28T18:15:52.556Z,8.03
2018-08-28T18:18:21.552Z,6.80
2018-08-28T18:20:50.493Z,6.80
2018-08-28T18:23:19.107Z,7.63
2018-08-28T18:25:47.854Z,8.20
2018-08-28T18:28:17.152Z,8.80
2018-08-28T18:30:45.965Z,7.50
2018-08-28T18:33:16.535Z,8.27
2018-08-28T18:35:45.914Z,9.47
2018-08-28T18:38:14.504Z,9.43
2018-08-28T18:40:43.236Z,8.70
2018-08-28T18:43:12.040Z,10.67
2018-08-28T18:45:41.803Z,12.03
2018-08-28T18:48:10.508Z,9.77
2018-08-28T18:50:39.364Z,8.40
2018-08-28T18:53:08.432Z,8.13
2018-08-28T18:55:37.147Z,8.13
2018-08-28T18:58:06.244Z,8.93
2018-08-28T19:00:35.011Z,8.73
2018-08-28T19:03:03.852Z,8.40
2018-08-28T19:05:32.996Z,9.03
2018-08-28T19:08:02.564Z,10.27
2018-08-28T19:10:31.297Z,9.50
2018-08-28T19:12:59.976Z,8.53
2018-08-28T19:15:28.627Z,8.40
2018-08-28T19:17:57.543Z,8.47
2018-08-28T19:20:26.887Z,7.97
2018-08-28T19:22:55.518Z,8.37
2018-08-28T19:25:25.103Z,8.60
2018-08-28T19:27:53.724Z,8.30
2018-08-28T19:30:22.264Z,7.70
2018-08-28T19:32:51.136Z,8.07
2018-08-28T19:35:19.851Z,8.80
2018-08-28T19:37:48.509Z,8.13
2018-08-28T19:40:17.132Z,7.87
2018-08-28T19:42:45.900Z,9.13
2018-08-28T19:45:14.519Z,8.20
2018-08-28T19:47:43.484Z,8.37
2018-08-28T19:50:12.324Z,8.07
2018-08-28T19:52:40.992Z,8.00
2018-08-28T19:55:10.042Z,8.60
2018-08-28T19:57:39.004Z,7.67
2018-08-28T20:00:09.101Z,7.53
2018-08-28T20:02:38.800Z,8.07
2018-08-28T20:05:07.492Z,9.13
2018-08-28T20:07:36.616Z,8.73
2018-08-28T20:10:06.056Z,8.00
2018-08-28T20:12:34.980Z,8.30
2018-08-28T20:15:04.143Z,8.47
2018-08-28T20:17:32.742Z,9.97
2018-08-28T20:20:01.732Z,10.13
2018-08-28T20:22:30.908Z,9.47
2018-08-28T20:25:00.187Z,9.07
2018-08-28T20:27:29.244Z,9.40
2018-08-28T20:29:58.087Z,9.70
2018-08-28T20:32:27.549Z,11.97
2018-08-28T20:34:56.828Z,9.67
2018-08-28T20:37:26.192Z,9.73
2018-08-28T20:39:55.696Z,8.57
2018-08-28T20:42:24.512Z,7.00
2018-08-28T20:44:53.569Z,7.07
2018-08-28T20:47:22.532Z,9.00
2018-08-28T20:49:51.187Z,8.20
2018-08-28T20:52:20.251Z,7.77
2018-08-28T20:54:49.184Z,7.73
2018-08-28T20:57:17.847Z,8.33
2018-08-28T20:59:46.675Z,8.70
2018-08-28T21:02:15.425Z,8.77
2018-08-28T21:04:44.182Z,7.83
2018-08-28T21:07:13.613Z,8.77
2018-08-28T21:09:43.368Z,7.17
2018-08-28T21:12:12.009Z,8.27
2018-08-28T21:14:41.253Z,9.10
2018-08-28T21:17:09.980Z,7.27
2018-08-28T21:19:38.731Z,8.30
2018-08-28T21:22:07.371Z,9.40
2018-08-28T21:24:36.031Z,7.30
2018-08-28T21:27:04.735Z,7.00
2018-08-28T21:29:33.511Z,8.90
2018-08-28T21:32:02.084Z,7.67
2018-08-28T21:34:31.725Z,7.80
2018-08-28T21:37:01.251Z,7.00
2018-08-28T21:39:30.136Z,7.33
2018-08-28T21:41:58.894Z,6.90
2018-08-28T21:44:28.140Z,8.60
2018-08-28T21:46:56.859Z,6.97
2018-08-28T21:49:26.148Z,7.00
2018-08-28T21:51:54.820Z,7.20
2018-08-28T21:54:23.528Z,7.47
2018-08-28T21:56:52.059Z,7.53
2018-08-28T21:59:20.676Z,7.13
2018-08-28T22:01:49.588Z,7.67
2018-08-28T22:04:18.497Z,7.00
2018-08-28T22:06:55.887Z,7.10
2018-08-28T22:09:24.877Z,7.90
2018-08-28T22:11:54.853Z,8.50
2018-08-28T22:14:23.869Z,7.10
2018-08-28T22:16:52.748Z,7.30
2018-08-28T22:22:24.402Z,7.30
2018-08-28T22:24:54.568Z,7.50
2018-08-28T22:27:23.569Z,6.70
2018-08-28T22:29:52.128Z,6.93
2018-08-28T22:32:20.898Z,7.77
2018-08-28T22:34:50.941Z,6.13
2018-08-28T22:37:20.644Z,7.00
2018-08-28T22:39:49.425Z,8.03
2018-08-28T22:42:18.371Z,7.60
2018-08-28T22:44:47.227Z,6.63
2018-08-28T22:47:17.621Z,8.03
2018-08-28T22:49:46.614Z,7.00
2018-08-28T22:52:15.303Z,7.33
2018-08-28T22:54:44.001Z,7.10
2018-08-28T22:57:13.895Z,7.57
2018-08-28T22:59:43.383Z,6.93
2018-08-28T23:02:12.240Z,7.00
2018-08-28T23:04:41.617Z,6.27
2018-08-28T23:07:10.841Z,6.63
2018-08-28T23:09:39.563Z,7.17
2018-08-28T23:12:08.871Z,7.20
2018-08-28T23:14:37.711Z,6.17
2018-08-28T23:17:06.465Z,6.63
2018-08-28T23:19:35.732Z,6.53
2018-08-28T23:22:04.347Z,7.57
2018-08-28T23:24:33.145Z,7.93
2018-08-28T23:27:01.753Z,7.10
2018-08-28T23:29:30.521Z,6.63
2018-08-28T23:32:00.220Z,8.37
2018-08-28T23:34:29.460Z,7.00
2018-08-28T23:36:58.452Z,7.07
2018-08-28T23:39:27.515Z,8.03
2018-08-28T23:41:56.710Z,8.00
2018-08-28T23:44:26.327Z,6.43
2018-08-28T23:46:56.224Z,7.20
2018-08-28T23:49:25.261Z,10.57
2018-08-28T23:51:54.342Z,8.60
2018-08-28T23:54:23.241Z,8.80
2018-08-28T23:56:52.694Z,10.77
2018-08-28T23:59:22.460Z,14.10
